Time;durP1;ratioP1;P1;durP2;ratioP2;P2;SDS_P1;SDS_P2;PMS_P1;PMS_P2;Temp;Humidity;BMP_temperature;BMP_pressure;BME280_temperature;BME280_humidity;BME280_pressure;Samples;Min_cycle;Max_cycle;Signal;HPM_P1;HPM_P2
2023/07/02 04:02:42;;;;;;;1.70;1.70;;;17.50;97.30;;;;;;5014302;23;20507;-87
2023/07/02 04:05:08;;;;;;;4.73;2.03;;;17.50;97.30;;;;;;4976033;28;20888;-89
2023/07/02 04:07:41;;;;;;;1.37;1.27;;;17.50;97.30;;;;;;4971647;28;20202;-88
2023/07/02 04:10:13;;;;;;;1.53;1.47;;;17.50;97.30;;;;;;4969323;28;20208;-85
2023/07/02 04:12:41;;;;;;;1.97;1.87;;;17.50;97.30;;;;;;4968560;28;20462;-87
2023/07/02 04:15:10;;;;;;;2.30;2.17;;;17.50;97.30;;;;;;4952844;29;20419;-90
2023/07/02 04:17:36;;;;;;;1.40;1.30;;;17.60;97.30;;;;;;4985154;23;20490;-66
2023/07/02 04:20:03;;;;;;;1.37;1.27;;;17.50;97.30;;;;;;4982021;28;20423;-66
2023/07/02 04:22:29;;;;;;;1.40;1.30;;;17.50;97.30;;;;;;4952306;28;20353;-66
2023/07/02 04:24:55;;;;;;;2.07;1.50;;;17.60;97.30;;;;;;4952100;28;20422;-66
2023/07/02 04:27:21;;;;;;;1.60;1.50;;;17.60;97.30;;;;;;4951839;28;20461;-65
2023/07/02 04:29:47;;;;;;;2.07;1.73;;;17.50;97.30;;;;;;4950141;28;20454;-66
2023/07/02 04:32:12;;;;;;;8.43;1.60;;;17.50;97.30;;;;;;4961237;28;20234;-66
2023/07/02 04:34:38;;;;;;;2.23;1.40;;;17.50;97.30;;;;;;4951536;29;20211;-66
2023/07/02 04:37:04;;;;;;;2.50;1.57;;;17.50;97.30;;;;;;4948807;29;20270;-66
2023/07/02 04:39:30;;;;;;;1.20;1.10;;;17.50;97.30;;;;;;4951573;28;20187;-66
2023/07/02 04:41:55;;;;;;;3.97;2.60;;;17.50;97.30;;;;;;4950615;29;20457;-66
2023/07/02 04:44:29;;;;;;;1.97;1.87;;;17.50;97.30;;;;;;4951844;29;20230;-66
2023/07/02 04:47:01;;;;;;;6.13;2.73;;;17.50;97.30;;;;;;4952327;28;20423;-66
2023/07/02 04:49:27;;;;;;;1.70;1.60;;;17.50;97.30;;;;;;4944626;29;20868;-66
2023/07/02 04:51:53;;;;;;;3.03;1.63;;;17.50;97.30;;;;;;4951302;28;20541;-66
2023/07/02 04:54:20;;;;;;;1.50;1.20;;;17.50;97.30;;;;;;4949858;28;20246;-66
2023/07/02 04:56:47;;;;;;;1.77;1.67;;;17.50;97.30;;;;;;4950714;29;20446;-66
2023/07/02 04:59:12;;;;;;;2.20;2.00;;;17.50;97.30;;;;;;4951884;29;20419;-66
2023/07/02 05:01:38;;;;;;;1.77;1.63;;;17.40;97.30;;;;;;4950135;29;20505;-68
2023/07/02 05:04:05;;;;;;;1.87;1.77;;;17.40;97.30;;;;;;4951215;28;20183;-66
2023/07/02 05:06:31;;;;;;;1.57;1.40;;;17.40;97.30;;;;;;4950278;28;20183;-66
2023/07/02 05:08:56;;;;;;;3.63;2.00;;;17.50;97.30;;;;;;4950792;29;20958;-66
2023/07/02 05:11:22;;;;;;;2.17;1.67;;;17.50;97.30;;;;;;4949799;28;20205;-66
2023/07/02 05:13:47;;;;;;;1.87;1.77;;;17.50;97.30;;;;;;4950371;29;20298;-66
2023/07/02 05:16:13;;;;;;;2.07;1.93;;;17.50;97.30;;;;;;4950974;28;20183;-66
2023/07/02 05:18:39;;;;;;;2.13;1.47;;;17.60;97.30;;;;;;4949665;29;20226;-66
2023/07/02 05:21:04;;;;;;;1.73;1.60;;;17.60;97.30;;;;;;4966349;28;20977;-66
2023/07/02 05:23:30;;;;;;;1.70;1.60;;;17.60;97.30;;;;;;4948890;29;20631;-66
2023/07/02 05:25:55;;;;;;;1.37;1.23;;;17.70;97.30;;;;;;4950526;28;20248;-67
2023/07/02 05:28:21;;;;;;;5.67;1.83;;;17.60;97.30;;;;;;4949658;29;20231;-66
2023/07/02 05:30:46;;;;;;;2.60;2.20;;;17.70;97.30;;;;;;4951206;28;20298;-66
2023/07/02 05:33:12;;;;;;;2.60;1.53;;;17.70;97.30;;;;;;4946446;29;20237;-67
2023/07/02 05:35:38;;;;;;;1.87;1.83;;;17.70;97.30;;;;;;4951281;29;20222;-67
2023/07/02 05:38:03;;;;;;;1.97;1.50;;;17.80;97.30;;;;;;4950658;28;20419;-67
2023/07/02 05:40:29;;;;;;;2.60;2.10;;;17.80;97.30;;;;;;4945618;29;20688;-67
2023/07/02 05:42:54;;;;;;;4.70;2.17;;;17.80;97.30;;;;;;4944000;29;20207;-67
2023/07/02 05:45:20;;;;;;;1.97;1.90;;;17.80;97.30;;;;;;4950700;28;20310;-66
2023/07/02 05:47:45;;;;;;;1.73;1.63;;;17.80;97.30;;;;;;4948332;29;20175;-66
2023/07/02 05:50:11;;;;;;;3.07;2.23;;;17.80;97.30;;;;;;4947553;29;20300;-66
2023/07/02 05:52:36;;;;;;;1.90;1.80;;;17.90;97.30;;;;;;4948785;29;20199;-66
2023/07/02 05:55:04;;;;;;;3.30;2.07;;;17.90;97.30;;;;;;4950705;28;20196;-67
2023/07/02 05:57:29;;;;;;;2.87;2.40;;;18.00;97.30;;;;;;4948094;29;20483;-66
2023/07/02 05:59:55;;;;;;;2.47;2.27;;;18.00;97.30;;;;;;4950547;28;20419;-67
2023/07/02 06:02:20;;;;;;;3.50;3.30;;;18.00;97.30;;;;;;4949225;29;20203;-66
2023/07/02 06:04:46;;;;;;;6.13;2.60;;;18.00;97.30;;;;;;4946032;28;20655;-66
2023/07/02 06:07:11;;;;;;;2.60;2.40;;;18.00;97.30;;;;;;4950378;28;20706;-66
2023/07/02 06:09:37;;;;;;;4.73;2.87;;;18.00;97.30;;;;;;4950627;28;20191;-66
2023/07/02 06:12:02;;;;;;;2.73;2.10;;;18.00;97.30;;;;;;4947592;28;20624;-67
2023/07/02 06:14:28;;;;;;;2.60;2.40;;;18.10;97.30;;;;;;4950321;28;20203;-66
2023/07/02 06:16:57;;;;;;;2.87;2.73;;;18.10;97.30;;;;;;4949063;28;20227;-66
2023/07/02 06:19:22;;;;;;;2.23;2.07;;;18.10;97.30;;;;;;4947789;28;20270;-66
2023/07/02 06:21:48;;;;;;;2.80;2.20;;;18.20;97.30;;;;;;4949613;29;20541;-67
2023/07/02 06:24:14;;;;;;;4.20;2.33;;;18.20;97.30;;;;;;4945684;29;20196;-66
2023/07/02 06:26:39;;;;;;;1.70;1.63;;;18.20;97.30;;;;;;4948969;29;20175;-66
2023/07/02 06:29:04;;;;;;;2.73;2.10;;;18.30;97.30;;;;;;4949742;28;20668;-66
2023/07/02 06:31:30;;;;;;;3.70;3.50;;;18.30;97.30;;;;;;4950110;28;20207;-66
2023/07/02 06:33:56;;;;;;;3.73;3.53;;;18.40;97.30;;;;;;4945794;28;20557;-67
2023/07/02 06:36:21;;;;;;;2.63;2.40;;;18.40;97.30;;;;;;4949960;28;20687;-66
2023/07/02 06:38:47;;;;;;;1.80;1.63;;;18.40;97.30;;;;;;4959175;28;20250;-66
2023/07/02 06:41:12;;;;;;;2.93;2.73;;;18.50;97.30;;;;;;4944169;28;20358;-66
2023/07/02 06:43:38;;;;;;;1.67;1.57;;;18.60;97.30;;;;;;4949779;28;20198;-66
2023/07/02 06:46:03;;;;;;;2.17;1.93;;;18.60;97.30;;;;;;4949641;29;20188;-66
2023/07/02 06:48:29;;;;;;;3.80;2.63;;;18.70;97.30;;;;;;4948345;28;20556;-66
2023/07/02 06:50:56;;;;;;;1.80;1.70;;;18.80;97.30;;;;;;4951377;28;20687;-67
2023/07/02 06:53:21;;;;;;;2.47;2.33;;;18.80;97.30;;;;;;4950288;28;20455;-67
2023/07/02 06:55:47;;;;;;;2.40;1.83;;;18.80;96.90;;;;;;4949537;28;20438;-66
2023/07/02 06:58:12;;;;;;;1.73;1.50;;;18.90;97.20;;;;;;4949927;28;20316;-66
2023/07/02 07:00:38;;;;;;;1.27;1.27;;;18.90;96.00;;;;;;4944660;28;20195;-66
2023/07/02 07:03:04;;;;;;;1.50;1.40;;;19.00;95.70;;;;;;4944637;29;20175;-66
2023/07/02 07:05:31;;;;;;;1.80;1.70;;;19.10;95.60;;;;;;4947161;29;20191;-67
2023/07/02 07:07:57;;;;;;;1.90;1.80;;;19.20;95.70;;;;;;4948084;28;20465;-66
2023/07/02 07:10:22;;;;;;;3.77;1.67;;;19.30;95.70;;;;;;4959386;28;20427;-66
2023/07/02 07:12:48;;;;;;;4.27;2.50;;;19.30;96.60;;;;;;4949940;28;20473;-66
2023/07/02 07:15:13;;;;;;;2.57;1.87;;;19.40;96.70;;;;;;4964331;28;20722;-67
2023/07/02 07:17:39;;;;;;;2.50;1.50;;;19.50;96.40;;;;;;4948089;29;20313;-68
2023/07/02 07:20:05;;;;;;;1.37;1.27;;;19.60;95.90;;;;;;4945284;29;20182;-67
2023/07/02 07:22:31;;;;;;;1.60;1.50;;;19.70;95.20;;;;;;4949088;29;20535;-67
2023/07/02 07:24:56;;;;;;;2.57;2.03;;;19.80;96.00;;;;;;4947546;28;20476;-66
2023/07/02 07:27:22;;;;;;;2.97;2.30;;;19.80;95.30;;;;;;4949852;29;20242;-68
2023/07/02 07:29:47;;;;;;;1.87;1.77;;;19.90;94.80;;;;;;4949848;28;20524;-66
2023/07/02 07:32:13;;;;;;;1.73;1.63;;;19.90;94.90;;;;;;4952107;28;20214;-65
2023/07/02 07:34:38;;;;;;;3.17;1.90;;;19.80;94.30;;;;;;4952642;29;20180;-66
2023/07/02 07:37:04;;;;;;;1.53;1.43;;;19.80;95.00;;;;;;4954590;29;20262;-66
2023/07/02 07:39:30;;;;;;;2.03;1.93;;;19.80;94.90;;;;;;4951984;29;20175;-66
2023/07/02 07:41:55;;;;;;;2.83;2.27;;;19.80;95.40;;;;;;4954189;28;20501;-66
2023/07/02 07:44:21;;;;;;;1.97;1.70;;;19.80;95.50;;;;;;4954243;28;20561;-67
2023/07/02 07:46:46;;;;;;;1.87;1.40;;;19.90;96.00;;;;;;4953387;28;20266;-67
2023/07/02 07:49:13;;;;;;;1.90;1.50;;;19.90;95.80;;;;;;4954481;29;20274;-68
2023/07/02 07:51:39;;;;;;;1.33;1.23;;;20.00;96.30;;;;;;4953847;28;21481;-67
2023/07/02 07:54:04;;;;;;;2.10;1.97;;;20.10;95.50;;;;;;4951960;28;20433;-70
2023/07/02 07:56:30;;;;;;;1.70;1.60;;;20.20;95.80;;;;;;4950095;28;20179;-67
2023/07/02 07:58:55;;;;;;;2.30;1.77;;;20.20;93.80;;;;;;4948019;28;20268;-66
2023/07/02 08:01:21;;;;;;;1.73;1.63;;;20.30;93.20;;;;;;4952183;28;20294;-71
2023/07/02 08:03:46;;;;;;;2.07;1.93;;;20.30;92.60;;;;;;4952932;28;20198;-68
2023/07/02 08:06:12;;;;;;;1.10;1.10;;;20.30;91.80;;;;;;4953121;28;20199;-65
2023/07/02 08:08:38;;;;;;;1.70;1.60;;;20.30;91.00;;;;;;4953681;28;20198;-66
2023/07/02 08:11:03;;;;;;;1.60;1.60;;;20.20;89.90;;;;;;4943656;28;20242;-66
2023/07/02 08:13:29;;;;;;;1.40;1.30;;;20.20;89.10;;;;;;4949644;28;20221;-67
2023/07/02 08:15:54;;;;;;;1.70;1.40;;;20.10;88.60;;;;;;4948413;29;20657;-67
2023/07/02 08:18:20;;;;;;;3.67;1.90;;;20.00;88.80;;;;;;4948619;29;20214;-69
2023/07/02 08:20:45;;;;;;;2.60;1.63;;;20.00;89.40;;;;;;4944174;28;20598;-67
2023/07/02 08:23:11;;;;;;;1.27;1.17;;;19.90;89.40;;;;;;4958482;28;20588;-67
2023/07/02 08:25:37;;;;;;;1.77;1.10;;;19.90;88.90;;;;;;4948870;29;20195;-69
2023/07/02 08:28:02;;;;;;;1.20;1.10;;;19.80;89.60;;;;;;4948755;28;21356;-68
2023/07/02 08:30:28;;;;;;;1.40;1.30;;;19.90;90.20;;;;;;4957049;28;20206;-67
2023/07/02 08:32:55;;;;;;;1.20;1.10;;;19.80;89.60;;;;;;4950363;28;20297;-67
2023/07/02 08:35:20;;;;;;;2.20;2.00;;;19.90;90.10;;;;;;4948751;28;20585;-67
2023/07/02 08:37:46;;;;;;;1.90;1.80;;;19.90;90.40;;;;;;4947852;28;20953;-67
2023/07/02 08:40:18;;;;;;;1.03;1.00;;;19.90;90.60;;;;;;4960292;28;20187;-67
2023/07/02 08:42:47;;;;;;;5.87;1.67;;;19.90;90.60;;;;;;4949915;28;20204;-70
2023/07/02 08:45:16;;;;;;;1.47;1.40;;;20.00;90.80;;;;;;4946191;28;20422;-68
2023/07/02 08:47:43;;;;;;;2.13;1.53;;;20.00;90.90;;;;;;4947202;28;20453;-68
2023/07/02 08:50:09;;;;;;;1.67;1.43;;;20.00;91.10;;;;;;4961272;28;20442;-73
2023/07/02 08:52:35;;;;;;;3.17;1.87;;;20.00;90.50;;;;;;4947947;29;20470;-67
2023/07/02 08:55:00;;;;;;;1.43;1.33;;;20.00;90.50;;;;;;4963348;28;20453;-67
2023/07/02 08:57:26;;;;;;;1.33;1.23;;;20.00;90.90;;;;;;4952191;28;21066;-68
2023/07/02 08:59:51;;;;;;;1.47;1.43;;;19.90;90.80;;;;;;4950689;29;20536;-68
2023/07/02 09:02:17;;;;;;;1.63;1.53;;;19.90;90.80;;;;;;4965401;28;20222;-68
2023/07/02 09:04:43;;;;;;;2.00;1.50;;;19.90;91.40;;;;;;4950465;29;20214;-68
2023/07/02 09:07:10;;;;;;;4.43;2.10;;;19.90;91.40;;;;;;4950714;28;20195;-67
2023/07/02 09:09:47;;;;;;;1.63;1.53;;;19.90;91.00;;;;;;4950142;29;20187;-67
2023/07/02 09:12:26;;;;;;;2.80;2.23;;;19.80;91.50;;;;;;4950186;29;20465;-67
2023/07/02 09:15:03;;;;;;;1.73;1.63;;;19.80;91.20;;;;;;4939645;29;20510;-67
2023/07/02 09:17:33;;;;;;;1.80;1.43;;;19.90;91.40;;;;;;4946534;29;20486;-68
2023/07/02 09:20:01;;;;;;;1.40;1.30;;;20.00;91.90;;;;;;4946989;29;20435;-67
2023/07/02 09:22:26;;;;;;;2.50;1.50;;;20.10;92.40;;;;;;4947811;28;20450;-67
2023/07/02 09:25:00;;;;;;;1.50;1.40;;;20.20;92.40;;;;;;4948951;29;20859;-66
2023/07/02 09:27:36;;;;;;;1.60;1.50;;;20.30;92.60;;;;;;4943831;29;20723;-67
2023/07/02 09:30:13;;;;;;;2.00;1.87;;;20.30;92.40;;;;;;4947701;28;20481;-68
2023/07/02 09:32:39;;;;;;;2.00;1.90;;;20.30;92.10;;;;;;4938206;28;20467;-79
2023/07/02 09:35:05;;;;;;;6.03;2.40;;;20.30;91.60;;;;;;4946727;29;20517;-68
2023/07/02 09:37:32;;;;;;;2.23;1.53;;;20.30;91.50;;;;;;4947876;29;20509;-68
2023/07/02 09:39:58;;;;;;;2.00;1.60;;;20.30;92.00;;;;;;4950786;28;20426;-68
2023/07/02 09:42:25;;;;;;;1.67;1.57;;;20.50;91.30;;;;;;4949967;28;20510;-67
2023/07/02 09:44:59;;;;;;;1.83;1.40;;;20.60;91.00;;;;;;4944045;29;20436;-68
2023/07/02 09:47:26;;;;;;;2.37;2.13;;;20.60;90.50;;;;;;4949257;28;20430;-67
2023/07/02 09:49:51;;;;;;;1.73;1.63;;;20.60;90.60;;;;;;4949512;29;20423;-67
2023/07/02 09:52:18;;;;;;;1.40;1.37;;;20.60;90.60;;;;;;4939871;28;20524;-68
2023/07/02 09:54:45;;;;;;;11.00;2.40;;;20.60;90.40;;;;;;4949530;29;20183;-66
2023/07/02 09:57:10;;;;;;;1.70;1.60;;;20.60;90.50;;;;;;4948862;29;20431;-67
2023/07/02 09:59:40;;;;;;;2.70;2.17;;;20.60;90.60;;;;;;4944303;28;20462;-69
2023/07/02 10:02:07;;;;;;;1.97;1.87;;;20.70;91.10;;;;;;4937848;28;20199;-67
2023/07/02 10:04:46;;;;;;;2.70;2.50;;;20.70;91.00;;;;;;4945836;28;20942;-66
2023/07/02 10:07:25;;;;;;;2.20;2.00;;;20.70;90.80;;;;;;4965274;28;20434;-67
2023/07/02 10:09:50;;;;;;;2.30;2.10;;;20.70;90.30;;;;;;4947832;28;20426;-67
2023/07/02 10:12:22;;;;;;;3.73;2.30;;;20.60;91.00;;;;;;4950341;28;20994;-66
2023/07/02 10:14:50;;;;;;;4.70;2.37;;;20.70;91.50;;;;;;4943547;29;20466;-67
2023/07/02 10:20:07;;;;;;;2.83;2.20;;;20.80;91.20;;;;;;4985265;28;20492;-77
2023/07/02 10:22:47;;;;;;;10.40;2.87;;;20.90;91.10;;;;;;4969929;28;20441;-77
2023/07/02 10:25:25;;;;;;;4.50;2.57;;;21.10;91.50;;;;;;4971344;28;20422;-74
2023/07/02 10:27:50;;;;;;;1.77;1.63;;;21.40;92.30;;;;;;4969452;28;20843;-76
2023/07/02 10:30:16;;;;;;;2.50;2.37;;;21.60;90.90;;;;;;4968286;28;20441;-69
2023/07/02 10:32:41;;;;;;;2.03;1.90;;;21.70;89.80;;;;;;4967987;28;20203;-71
2023/07/02 10:35:15;;;;;;;4.33;2.30;;;21.70;89.30;;;;;;4963120;28;20191;-73
2023/07/02 10:37:40;;;;;;;2.13;1.60;;;21.70;88.80;;;;;;4966145;28;20774;-74
2023/07/02 10:40:07;;;;;;;4.77;2.80;;;21.60;89.10;;;;;;4965886;28;20429;-74
2023/07/02 10:42:33;;;;;;;3.83;2.10;;;21.60;89.40;;;;;;4965525;28;20186;-75
2023/07/02 10:44:59;;;;;;;3.07;1.90;;;21.50;88.60;;;;;;4967056;28;20444;-73
2023/07/02 10:47:25;;;;;;;1.60;1.50;;;21.50;87.40;;;;;;4961875;28;20445;-76
2023/07/02 10:49:50;;;;;;;4.40;2.27;;;21.40;87.10;;;;;;4965729;28;20191;-68
2023/07/02 10:52:16;;;;;;;3.90;2.47;;;21.40;87.30;;;;;;4963233;28;20567;-76
2023/07/02 10:54:42;;;;;;;2.40;1.73;;;21.30;86.50;;;;;;4965065;28;20206;-75
2023/07/02 10:57:09;;;;;;;4.13;2.60;;;21.30;86.80;;;;;;4966316;28;20174;-79
2023/07/02 10:59:35;;;;;;;5.57;4.50;;;21.30;86.60;;;;;;4966319;28;20458;-76
2023/07/02 11:02:03;;;;;;;3.67;2.67;;;21.30;86.50;;;;;;4965253;28;20478;-74
2023/07/02 11:04:29;;;;;;;2.70;2.50;;;21.20;86.40;;;;;;4966279;28;20193;-79
2023/07/02 11:06:55;;;;;;;5.53;2.47;;;21.20;86.40;;;;;;4970536;28;20438;-72
2023/07/02 11:09:20;;;;;;;5.67;2.53;;;21.10;86.50;;;;;;4971175;28;20432;-64
2023/07/02 11:12:00;;;;;;;2.37;2.17;;;21.00;86.40;;;;;;4972653;28;20220;-77
2023/07/02 11:14:32;;;;;;;3.87;2.40;;;20.90;86.50;;;;;;4971952;28;20590;-77
2023/07/02 11:17:03;;;;;;;8.47;2.87;;;20.80;87.20;;;;;;4965594;28;20971;-77
2023/07/02 11:19:28;;;;;;;3.97;2.87;;;20.70;87.40;;;;;;4972481;28;20985;-79
2023/07/02 11:21:56;;;;;;;8.80;2.43;;;20.70;87.80;;;;;;4964900;28;20464;-74
2023/07/02 11:24:33;;;;;;;2.80;2.50;;;20.80;87.30;;;;;;4971239;28;20666;-71
2023/07/02 11:27:05;;;;;;;5.63;2.67;;;20.90;86.60;;;;;;4965442;28;20941;-66
2023/07/02 11:29:31;;;;;;;12.53;2.67;;;20.90;86.70;;;;;;4970671;28;20418;-73
2023/07/02 11:32:10;;;;;;;11.20;3.03;;;20.90;86.40;;;;;;4972365;28;20752;-66
2023/07/02 11:34:37;;;;;;;6.27;2.50;;;21.10;87.10;;;;;;4971429;28;20548;-74
2023/07/02 11:37:04;;;;;;;3.57;2.00;;;21.30;86.90;;;;;;4972071;28;20432;-76
2023/07/02 11:39:29;;;;;;;3.33;2.77;;;21.50;85.70;;;;;;4970650;28;20445;-75
2023/07/02 11:41:55;;;;;;;4.93;4.03;;;21.70;86.40;;;;;;4971424;28;20501;-78
2023/07/02 11:44:21;;;;;;;9.37;3.83;;;22.00;86.20;;;;;;4972942;28;20237;-75
2023/07/02 11:46:47;;;;;;;8.30;3.20;;;22.30;85.20;;;;;;4972738;28;20547;-81
2023/07/02 11:49:13;;;;;;;2.80;2.60;;;22.50;84.30;;;;;;4971012;28;20202;-81
2023/07/02 11:51:40;;;;;;;4.40;3.40;;;22.60;83.30;;;;;;4971638;28;20481;-68
2023/07/02 11:54:06;;;;;;;4.03;2.20;;;22.70;83.40;;;;;;4970849;28;20182;-79
2023/07/02 11:56:33;;;;;;;5.83;2.53;;;22.90;81.30;;;;;;4971119;28;20422;-78
2023/07/02 11:58:59;;;;;;;2.77;2.30;;;22.80;82.00;;;;;;4969784;28;20473;-69
2023/07/02 12:01:24;;;;;;;3.27;2.37;;;22.70;81.40;;;;;;4972462;28;20864;-81
2023/07/02 12:03:50;;;;;;;4.60;4.00;;;22.60;81.80;;;;;;4970022;28;20209;-83
2023/07/02 12:06:15;;;;;;;6.03;2.07;;;22.70;81.30;;;;;;4970720;28;20674;-66
2023/07/02 12:08:41;;;;;;;6.73;2.77;;;22.90;81.50;;;;;;4965366;28;20194;-83
2023/07/02 12:11:07;;;;;;;4.87;3.40;;;23.20;81.00;;;;;;4967582;28;20237;-81
2023/07/02 12:13:33;;;;;;;6.30;2.80;;;23.40;80.70;;;;;;4963398;28;20254;-70
2023/07/02 12:15:58;;;;;;;4.47;2.60;;;23.40;80.20;;;;;;4966312;28;20535;-69
2023/07/02 12:18:24;;;;;;;15.53;3.27;;;23.40;79.80;;;;;;4964005;28;20223;-80
2023/07/02 12:20:49;;;;;;;6.00;3.20;;;23.30;79.70;;;;;;4964760;28;20198;-79
2023/07/02 12:23:15;;;;;;;2.53;2.33;;;23.20;79.20;;;;;;4970391;28;20187;-80
2023/07/02 12:25:40;;;;;;;4.50;2.90;;;23.10;79.60;;;;;;4967330;28;20190;-79
2023/07/02 12:28:06;;;;;;;7.00;2.43;;;23.00;79.90;;;;;;4970805;28;20273;-75
2023/07/02 12:30:32;;;;;;;3.80;2.37;;;22.80;79.70;;;;;;4965673;28;20659;-79
2023/07/02 12:32:58;;;;;;;3.43;2.57;;;22.70;79.40;;;;;;4968917;28;20199;-76
2023/07/02 12:35:23;;;;;;;7.20;3.80;;;22.60;78.90;;;;;;4969727;28;20245;-79
2023/07/02 12:37:51;;;;;;;3.10;2.73;;;22.50;79.40;;;;;;4969245;28;20189;-72
2023/07/02 12:40:17;;;;;;;13.73;3.80;;;22.70;79.30;;;;;;4967134;28;20183;-80
2023/07/02 12:42:44;;;;;;;1.87;1.77;;;23.00;78.10;;;;;;4966638;28;20493;-69
2023/07/02 12:45:11;;;;;;;5.07;2.80;;;23.20;78.10;;;;;;4970426;28;20422;-73
2023/07/02 12:47:37;;;;;;;5.77;3.50;;;23.20;78.00;;;;;;4970386;28;20965;-78
2023/07/02 12:50:03;;;;;;;3.37;2.37;;;23.30;78.30;;;;;;4971362;28;20480;-77
2023/07/02 12:52:29;;;;;;;2.23;1.80;;;23.50;77.60;;;;;;4969269;28;21037;-75
2023/07/02 12:54:54;;;;;;;5.13;2.53;;;23.70;78.70;;;;;;4970262;28;20650;-71
2023/07/02 12:57:20;;;;;;;2.83;2.67;;;23.70;76.80;;;;;;4969075;28;20426;-77
2023/07/02 12:59:45;;;;;;;4.13;3.00;;;23.80;75.80;;;;;;4969157;28;20183;-77
2023/07/02 13:02:11;;;;;;;7.30;3.13;;;23.80;76.30;;;;;;4969891;28;20241;-73
2023/07/02 13:04:38;;;;;;;3.27;2.20;;;23.80;76.40;;;;;;4969069;28;20190;-70
2023/07/02 13:07:03;;;;;;;5.53;3.00;;;23.60;76.00;;;;;;4971574;28;20178;-69
2023/07/02 13:09:29;;;;;;;3.80;2.50;;;23.40;75.60;;;;;;4969753;28;20460;-72
2023/07/02 13:11:54;;;;;;;4.87;3.10;;;23.30;76.50;;;;;;4967046;28;20206;-74
2023/07/02 13:14:20;;;;;;;6.00;3.50;;;23.40;77.70;;;;;;4967695;28;20657;-77
2023/07/02 13:16:46;;;;;;;7.10;2.77;;;23.50;78.10;;;;;;4967504;28;20186;-78
2023/07/02 13:19:12;;;;;;;7.33;3.80;;;23.40;78.30;;;;;;4966724;28;20226;-80
2023/07/02 13:21:37;;;;;;;5.00;2.87;;;23.30;78.40;;;;;;4966879;28;20609;-77
2023/07/02 13:24:03;;;;;;;6.73;2.87;;;23.20;78.80;;;;;;4967579;28;20426;-83
2023/07/02 13:26:29;;;;;;;3.90;3.03;;;23.10;79.40;;;;;;4969089;28;20179;-81
2023/07/02 13:28:54;;;;;;;6.20;3.10;;;23.00;79.50;;;;;;4969388;28;20194;-75
2023/07/02 13:31:20;;;;;;;8.53;4.50;;;23.00;79.70;;;;;;4947597;28;20214;-79
2023/07/02 13:33:49;;;;;;;5.17;3.43;;;23.10;79.70;;;;;;4966968;28;20203;-81
2023/07/02 13:36:14;;;;;;;3.37;3.27;;;23.20;80.00;;;;;;4971503;28;20190;-76
2023/07/02 13:38:40;;;;;;;4.43;2.80;;;23.30;79.90;;;;;;4970234;28;20422;-78
2023/07/02 13:41:06;;;;;;;7.93;5.00;;;23.30;79.50;;;;;;4967895;28;20545;-81
2023/07/02 13:43:31;;;;;;;11.03;2.57;;;23.40;79.10;;;;;;4970518;28;20178;-76
2023/07/02 13:45:58;;;;;;;3.17;3.00;;;23.60;79.20;;;;;;4971273;28;20205;-74
2023/07/02 13:48:23;;;;;;;11.67;3.90;;;23.80;78.50;;;;;;4971052;28;20186;-78
2023/07/02 13:50:49;;;;;;;7.10;3.30;;;23.90;77.40;;;;;;4971758;28;20445;-74
2023/07/02 13:53:14;;;;;;;4.47;2.70;;;24.20;77.20;;;;;;4969654;28;20213;-79
2023/07/02 13:55:40;;;;;;;5.13;2.97;;;24.20;76.70;;;;;;4971228;28;20182;-77
2023/07/02 13:58:05;;;;;;;4.60;3.30;;;24.10;76.20;;;;;;4968418;28;20221;-78
2023/07/02 14:00:31;;;;;;;8.13;3.40;;;23.90;76.90;;;;;;4966304;28;20203;-75
2023/07/02 14:02:58;;;;;;;13.23;3.23;;;23.80;77.60;;;;;;4963202;28;20244;-76
2023/07/02 14:05:23;;;;;;;6.40;4.10;;;23.60;76.40;;;;;;4966744;28;20285;-80
2023/07/02 14:07:49;;;;;;;4.73;3.07;;;23.50;77.30;;;;;;4966596;28;20554;-83
2023/07/02 14:10:15;;;;;;;8.43;3.20;;;23.50;77.10;;;;;;4968720;28;20182;-79
2023/07/02 14:12:41;;;;;;;4.17;3.63;;;23.40;77.70;;;;;;4967509;28;20209;-74
2023/07/02 14:15:08;;;;;;;4.50;2.13;;;23.40;77.20;;;;;;4968213;28;20639;-79
2023/07/02 14:17:34;;;;;;;4.07;2.70;;;23.40;77.60;;;;;;4968612;28;20454;-78
2023/07/02 14:19:59;;;;;;;6.67;3.73;;;23.40;77.30;;;;;;4965590;28;20548;-75
2023/07/02 14:22:25;;;;;;;4.13;3.03;;;23.30;77.60;;;;;;4965793;28;20289;-75
2023/07/02 14:24:51;;;;;;;5.67;3.83;;;23.20;77.80;;;;;;4966552;28;20551;-78
2023/07/02 14:27:16;;;;;;;5.50;3.20;;;23.10;77.80;;;;;;4965354;28;20182;-74
2023/07/02 14:29:42;;;;;;;20.80;3.40;;;23.10;78.10;;;;;;4973093;28;20622;-73
2023/07/02 14:32:07;;;;;;;8.13;3.10;;;23.30;78.20;;;;;;4966909;28;20206;-79
2023/07/02 14:34:33;;;;;;;6.40;3.67;;;23.60;77.50;;;;;;4965655;28;20190;-76
2023/07/02 14:36:59;;;;;;;5.90;3.67;;;23.80;75.80;;;;;;4966242;28;20178;-75
2023/07/02 14:39:25;;;;;;;5.17;2.97;;;23.80;75.20;;;;;;4967393;28;20186;-82
2023/07/02 14:41:51;;;;;;;6.23;2.80;;;23.80;75.40;;;;;;4967726;28;20206;-84
2023/07/02 14:44:17;;;;;;;6.83;3.27;;;23.90;75.10;;;;;;4967883;28;20183;-75
2023/07/02 14:46:42;;;;;;;5.93;3.47;;;23.90;74.90;;;;;;4967249;28;20509;-79
2023/07/02 14:49:09;;;;;;;3.13;2.33;;;23.90;75.40;;;;;;4968273;28;20659;-78
2023/07/02 14:51:34;;;;;;;4.60;2.73;;;23.80;75.70;;;;;;4967775;28;20274;-77
2023/07/02 14:54:03;;;;;;;5.87;3.23;;;23.80;76.50;;;;;;4967915;28;20481;-83
2023/07/02 14:56:29;;;;;;;4.23;2.80;;;23.90;76.40;;;;;;4967569;28;20553;-76
2023/07/02 14:58:55;;;;;;;5.27;3.70;;;23.90;75.10;;;;;;4967785;28;20509;-82
2023/07/02 15:01:20;;;;;;;5.70;2.73;;;23.90;74.60;;;;;;4968021;28;21022;-72
2023/07/02 15:03:46;;;;;;;5.23;4.50;;;23.90;75.50;;;;;;4969661;28;20189;-73
2023/07/02 15:06:14;;;;;;;2.40;2.20;;;23.90;75.20;;;;;;4969127;28;20178;-77
2023/07/02 15:08:40;;;;;;;4.77;2.67;;;23.90;75.20;;;;;;4976921;28;20198;-75
2023/07/02 15:11:06;;;;;;;5.33;3.07;;;24.00;75.30;;;;;;4972825;28;20811;-80
2023/07/02 15:13:32;;;;;;;13.30;4.03;;;24.00;74.40;;;;;;4973267;28;20540;-76
2023/07/02 15:15:57;;;;;;;6.03;3.50;;;24.10;75.70;;;;;;4967068;28;20446;-78
2023/07/02 15:18:24;;;;;;;3.37;2.87;;;24.20;75.40;;;;;;4967698;28;20218;-80
2023/07/02 15:20:51;;;;;;;4.87;3.03;;;24.20;75.10;;;;;;4973651;28;20237;-80
2023/07/02 15:23:16;;;;;;;6.60;4.97;;;24.10;74.90;;;;;;4968064;28;20429;-78
2023/07/02 15:25:42;;;;;;;7.47;4.50;;;23.90;75.40;;;;;;4968154;28;20517;-81
2023/07/02 15:28:07;;;;;;;13.43;3.77;;;23.80;75.10;;;;;;4969809;28;20186;-84
2023/07/02 15:30:38;;;;;;;10.20;4.00;;;23.60;74.20;;;;;;4967611;28;20577;-83
2023/07/02 15:33:03;;;;;;;3.43;2.70;;;23.50;74.70;;;;;;4961963;28;20675;-84
2023/07/02 15:35:29;;;;;;;11.07;5.07;;;23.40;75.70;;;;;;4969464;28;20643;-82
2023/07/02 15:37:54;;;;;;;6.93;4.13;;;23.60;76.10;;;;;;4968804;28;20179;-79
2023/07/02 15:40:20;;;;;;;4.90;3.83;;;23.70;76.80;;;;;;4971119;28;20209;-82
2023/07/02 15:42:45;;;;;;;4.83;3.17;;;23.70;75.20;;;;;;4967803;28;20183;-80
2023/07/02 15:45:11;;;;;;;6.73;4.00;;;23.80;76.20;;;;;;4963889;28;20230;-79
2023/07/02 15:47:37;;;;;;;11.33;4.33;;;24.00;74.90;;;;;;4983214;28;20721;-78
2023/07/02 15:50:02;;;;;;;4.10;2.77;;;24.10;75.50;;;;;;4967416;28;20179;-80
2023/07/02 15:52:28;;;;;;;6.30;4.13;;;24.20;74.60;;;;;;4970561;28;20682;-78
2023/07/02 15:54:53;;;;;;;5.53;4.10;;;24.20;74.70;;;;;;4971619;28;20182;-77
2023/07/02 15:57:19;;;;;;;5.30;3.90;;;24.40;74.00;;;;;;4969911;28;20384;-76
2023/07/02 15:59:44;;;;;;;8.23;3.50;;;24.60;72.90;;;;;;4971110;28;20182;-79
2023/07/02 16:02:10;;;;;;;7.90;3.50;;;24.70;73.60;;;;;;4969568;28;20289;-82
2023/07/02 16:04:36;;;;;;;8.73;3.90;;;24.70;72.80;;;;;;4971883;28;20190;-85
2023/07/02 16:07:02;;;;;;;13.37;3.10;;;24.80;73.20;;;;;;4971352;28;20182;-72
2023/07/02 16:09:27;;;;;;;10.23;5.27;;;24.80;72.10;;;;;;4970794;28;20934;-80
2023/07/02 16:11:53;;;;;;;7.07;3.90;;;24.70;73.40;;;;;;4971989;28;20290;-81
2023/07/02 16:14:21;;;;;;;6.43;2.37;;;24.60;73.00;;;;;;4972225;28;20262;-81
2023/07/02 16:16:53;;;;;;;4.67;2.83;;;24.50;72.60;;;;;;4970169;28;20570;-75
2023/07/02 16:19:20;;;;;;;3.23;2.43;;;24.40;72.20;;;;;;4969661;28;20481;-78
2023/07/02 16:21:47;;;;;;;5.07;3.53;;;24.60;73.20;;;;;;4981323;23;20510;-70
2023/07/02 16:24:27;;;;;;;3.80;3.10;;;24.70;73.00;;;;;;4950170;29;20438;-73
2023/07/02 16:26:55;;;;;;;19.23;4.87;;;24.80;72.20;;;;;;4950724;28;20529;-72
2023/07/02 16:29:21;;;;;;;3.03;2.83;;;24.90;72.30;;;;;;4952436;28;20474;-73
2023/07/02 16:31:55;;;;;;;8.90;3.10;;;25.00;71.40;;;;;;4952388;28;20451;-73
2023/07/02 16:34:20;;;;;;;5.23;3.00;;;25.00;72.20;;;;;;4950586;29;20438;-73
2023/07/02 16:36:46;;;;;;;4.50;4.13;;;25.10;71.30;;;;;;4945222;28;20839;-72
2023/07/02 16:39:14;;;;;;;7.40;3.57;;;25.10;71.70;;;;;;4949051;29;20274;-74
2023/07/02 16:41:46;;;;;;;8.23;3.77;;;25.10;71.40;;;;;;4949019;28;20203;-74
2023/07/02 16:44:19;;;;;;;7.53;3.87;;;25.00;72.20;;;;;;4946158;29;20438;-74
2023/07/02 16:46:46;;;;;;;4.83;3.47;;;25.00;72.70;;;;;;4950733;29;20474;-73